Time;durP1;ratioP1;P1;durP2;ratioP2;P2;SDS_P1;SDS_P2;PMS_P1;PMS_P2;Temp;Humidity;BMP_temperature;BMP_pressure;BME280_temperature;BME280_humidity;BME280_pressure;Samples;Min_cycle;Max_cycle;Signal;HPM_P1;HPM_P2
2023/05/14 00:00:28;;;;;;;10.13;9.03;;;;;;;12.17;100.00;98174.84;5072840;28;20211;-75
2023/05/14 00:02:55;;;;;;;9.90;8.90;;;;;;;12.10;100.00;98171.78;5072544;28;20678;-76
2023/05/14 00:05:22;;;;;;;11.27;9.10;;;;;;;12.06;100.00;98166.84;5073400;28;20227;-76
2023/05/14 00:07:49;;;;;;;10.47;8.60;;;;;;;12.04;100.00;98168.78;5072989;28;20250;-75
2023/05/14 00:10:16;;;;;;;11.87;8.87;;;;;;;11.96;100.00;98160.53;5072698;28;20247;-75
2023/05/14 00:12:43;;;;;;;9.63;7.87;;;;;;;11.95;100.00;98164.13;5072843;28;20224;-76
2023/05/14 00:15:11;;;;;;;9.90;8.63;;;;;;;11.93;100.00;98152.81;5071256;28;20218;-75
2023/05/14 00:17:38;;;;;;;9.70;8.70;;;;;;;11.90;100.00;98150.38;5069934;28;20287;-75
2023/05/14 00:20:06;;;;;;;10.60;9.30;;;;;;;11.89;100.00;98148.69;5069684;28;20222;-76
2023/05/14 00:22:32;;;;;;;9.43;8.43;;;;;;;11.85;100.00;98152.53;5070237;28;20237;-76
2023/05/14 00:24:59;;;;;;;9.80;8.80;;;;;;;11.82;100.00;98144.81;5072978;28;20214;-75
2023/05/14 00:27:26;;;;;;;9.97;8.93;;;;;;;11.77;100.00;98141.66;5072390;28;20228;-75
2023/05/14 00:29:52;;;;;;;10.40;8.83;;;;;;;11.72;100.00;98135.84;5069599;28;20246;-75
2023/05/14 00:32:20;;;;;;;11.53;8.87;;;;;;;11.68;100.00;98126.47;5069935;28;20211;-76
2023/05/14 00:34:46;;;;;;;10.77;9.67;;;;;;;11.66;100.00;98137.16;5069654;28;20214;-76
2023/05/14 00:37:13;;;;;;;11.33;9.23;;;;;;;11.65;100.00;98134.63;5071422;28;20602;-75
2023/05/14 00:39:39;;;;;;;10.97;9.53;;;;;;;11.62;100.00;98134.84;5072136;28;20207;-75
2023/05/14 00:42:06;;;;;;;11.07;8.90;;;;;;;11.62;100.00;98124.28;5072419;28;20210;-76
2023/05/14 00:44:33;;;;;;;10.47;9.37;;;;;;;11.58;100.00;98128.94;5072250;28;20211;-75
2023/05/14 00:47:00;;;;;;;10.50;9.03;;;;;;;11.59;100.00;98135.06;5072081;28;20242;-76
2023/05/14 00:49:28;;;;;;;9.70;8.70;;;;;;;11.55;100.00;98130.94;5071998;28;20538;-76
2023/05/14 00:51:57;;;;;;;9.57;8.57;;;;;;;11.44;100.00;98121.09;5072398;28;20215;-75
2023/05/14 00:54:24;;;;;;;9.20;8.17;;;;;;;11.41;100.00;98125.78;5071944;28;20218;-75
2023/05/14 00:56:51;;;;;;;9.57;8.53;;;;;;;11.36;100.00;98127.91;5071816;28;20210;-75
2023/05/14 00:59:17;;;;;;;9.43;8.10;;;;;;;11.31;100.00;98124.78;5070857;28;20214;-76
2023/05/14 01:01:44;;;;;;;9.27;8.20;;;;;;;11.31;100.00;98125.59;5072043;28;20211;-76
2023/05/14 01:04:11;;;;;;;8.87;7.97;;;;;;;11.27;100.00;98116.22;5072188;28;20210;-75
2023/05/14 01:06:50;;;;;;;9.83;8.80;;;;;;;11.27;100.00;98123.31;5071780;28;20239;-75
2023/05/14 01:09:22;;;;;;;9.63;8.23;;;;;;;11.21;100.00;98107.88;5071312;28;20610;-76
2023/05/14 01:11:54;;;;;;;9.87;8.30;;;;;;;11.17;100.00;98109.88;5071983;28;20207;-76
2023/05/14 01:14:25;;;;;;;10.27;9.13;;;;;;;11.13;100.00;98111.06;5071174;28;20249;-75
2023/05/14 01:16:56;;;;;;;9.50;8.60;;;;;;;11.03;100.00;98112.69;5071742;28;20218;-76
2023/05/14 01:19:29;;;;;;;10.63;8.50;;;;;;;11.03;100.00;98111.84;5071410;28;20225;-76
2023/05/14 01:21:57;;;;;;;9.63;8.60;;;;;;;10.97;100.00;98110.47;5071595;28;20251;-76
2023/05/14 01:24:24;;;;;;;9.00;8.10;;;;;;;10.94;100.00;98115.13;5071633;28;20219;-75
2023/05/14 01:26:51;;;;;;;11.83;8.83;;;;;;;10.89;100.00;98111.97;5071382;28;20575;-76
2023/05/14 01:29:23;;;;;;;9.63;8.57;;;;;;;10.89;100.00;98110.16;5071341;28;20291;-75
2023/05/14 01:31:50;;;;;;;10.33;9.33;;;;;;;10.83;100.00;98112.41;5071549;28;20214;-75
2023/05/14 01:34:21;;;;;;;11.83;9.33;;;;;;;10.83;100.00;98109.75;5071426;28;20221;-75
2023/05/14 01:36:48;;;;;;;10.53;9.33;;;;;;;10.73;100.00;98106.06;5071060;28;20580;-75
2023/05/14 01:39:17;;;;;;;10.17;8.87;;;;;;;10.70;100.00;98107.13;5071067;28;20225;-75
2023/05/14 01:41:45;;;;;;;12.03;9.30;;;;;;;10.65;100.00;98103.94;5070054;28;20236;-76
2023/05/14 01:44:12;;;;;;;11.53;9.70;;;;;;;10.60;100.00;98105.22;5068423;28;20237;-75
2023/05/14 01:46:38;;;;;;;10.80;9.33;;;;;;;10.65;100.00;98105.75;5068249;28;20239;-75
2023/05/14 01:49:05;;;;;;;10.53;9.13;;;;;;;10.68;100.00;98095.81;5068245;28;20229;-75
2023/05/14 01:51:31;;;;;;;11.53;9.00;;;;;;;10.67;100.00;98098.56;5071347;28;20207;-76
2023/05/14 01:53:58;;;;;;;12.23;9.50;;;;;;;10.67;100.00;98096.78;5071346;28;20205;-76
2023/05/14 01:56:25;;;;;;;9.70;8.70;;;;;;;10.63;100.00;98105.00;5071101;28;20215;-76
2023/05/14 01:58:52;;;;;;;10.07;9.07;;;;;;;10.61;100.00;98106.91;5070990;28;20267;-76
2023/05/14 02:01:19;;;;;;;10.30;9.10;;;;;;;10.50;100.00;98106.81;5070712;28;20406;-75
2023/05/14 02:03:45;;;;;;;11.63;9.00;;;;;;;10.47;100.00;98114.97;5071173;28;20215;-75
2023/05/14 02:06:12;;;;;;;9.43;8.43;;;;;;;10.36;100.00;98112.22;5071213;28;20237;-75
2023/05/14 02:08:38;;;;;;;11.43;9.23;;;;;;;10.29;100.00;98105.66;5071017;28;20234;-75
2023/05/14 02:11:05;;;;;;;10.73;9.23;;;;;;;10.22;100.00;98104.38;5070942;28;20211;-76
2023/05/14 02:13:33;;;;;;;9.90;8.47;;;;;;;10.19;100.00;98105.44;5071001;28;20214;-75
2023/05/14 02:15:59;;;;;;;9.93;8.90;;;;;;;10.18;100.00;98102.91;5071216;28;20226;-76
2023/05/14 02:18:26;;;;;;;11.27;9.17;;;;;;;10.11;100.00;98107.75;5071346;28;20228;-75
2023/05/14 02:20:52;;;;;;;10.83;8.93;;;;;;;10.05;100.00;98096.75;5070861;28;20210;-75
2023/05/14 02:23:19;;;;;;;10.67;8.73;;;;;;;9.97;100.00;98099.03;5071073;28;20238;-76
2023/05/14 02:25:45;;;;;;;10.20;8.90;;;;;;;9.92;100.00;98107.25;5072457;28;20224;-75
2023/05/14 02:28:12;;;;;;;10.27;9.00;;;;;;;9.85;100.00;98105.16;5074796;28;20240;-75
2023/05/14 02:30:39;;;;;;;13.63;9.03;;;;;;;9.86;100.00;98102.38;5074774;28;20216;-75
2023/05/14 02:33:06;;;;;;;10.50;8.57;;;;;;;9.85;100.00;98103.34;5074880;28;20304;-75
2023/05/14 02:35:32;;;;;;;10.20;8.47;;;;;;;9.86;100.00;98098.91;5074913;28;20204;-75
2023/05/14 02:37:59;;;;;;;9.80;8.53;;;;;;;9.85;100.00;98108.63;5074528;28;20232;-75
2023/05/14 02:40:25;;;;;;;10.67;9.43;;;;;;;9.88;100.00;98104.94;5074460;28;20218;-75
2023/05/14 02:42:52;;;;;;;11.50;9.13;;;;;;;9.95;100.00;98100.94;5074586;28;20554;-75
2023/05/14 02:45:18;;;;;;;11.57;10.33;;;;;;;10.03;100.00;98106.56;5074758;28;20207;-75
2023/05/14 02:47:46;;;;;;;12.47;9.60;;;;;;;10.04;100.00;98103.81;5074313;28;20229;-75
2023/05/14 02:50:13;;;;;;;10.23;8.83;;;;;;;10.06;100.00;98106.38;5074348;28;20234;-75
2023/05/14 02:52:39;;;;;;;10.70;9.20;;;;;;;10.09;100.00;98099.09;5074427;28;20216;-74
2023/05/14 02:55:06;;;;;;;12.83;9.13;;;;;;;10.12;100.00;98106.81;5074307;28;20246;-75
2023/05/14 02:57:33;;;;;;;10.70;8.93;;;;;;;10.14;100.00;98112.81;5074163;28;20221;-76
2023/05/14 02:59:59;;;;;;;10.70;9.27;;;;;;;10.21;100.00;98108.81;5073977;28;20210;-75
2023/05/14 03:02:26;;;;;;;10.57;8.87;;;;;;;10.28;100.00;98118.00;5074589;28;20208;-75
2023/05/14 03:04:54;;;;;;;11.83;8.83;;;;;;;10.22;100.00;98115.78;5074341;28;20590;-75
2023/05/14 03:09:51;;;;;;;9.57;8.03;;;;;;;10.24;100.00;98115.69;5032307;28;20230;-82
2023/05/14 03:12:18;;;;;;;10.67;9.43;;;;;;;10.28;100.00;98120.66;5034562;28;20213;-82
2023/05/14 03:14:44;;;;;;;8.90;7.97;;;;;;;10.31;100.00;98114.31;5034382;28;20215;-82
2023/05/14 03:17:11;;;;;;;11.10;8.40;;;;;;;10.39;100.00;98114.66;5034014;28;20213;-82
2023/05/14 03:19:37;;;;;;;8.73;7.23;;;;;;;10.42;100.00;98112.66;5033747;28;20239;-82
2023/05/14 03:22:05;;;;;;;8.57;7.67;;;;;;;10.33;100.00;98110.63;5033783;28;20209;-82
2023/05/14 03:24:32;;;;;;;8.43;7.53;;;;;;;10.26;100.00;98100.56;5033972;28;20210;-82
2023/05/14 03:26:58;;;;;;;10.60;6.90;;;;;;;10.19;100.00;98102.81;5034032;28;20710;-82
2023/05/14 03:29:24;;;;;;;8.87;7.70;;;;;;;10.19;100.00;98100.16;5033614;28;20229;-82
2023/05/14 03:31:51;;;;;;;8.87;7.80;;;;;;;10.19;100.00;98099.31;5034068;28;20219;-82
2023/05/14 03:34:18;;;;;;;9.63;7.90;;;;;;;10.25;100.00;98101.53;5033979;28;20577;-82
2023/05/14 03:36:44;;;;;;;8.50;7.60;;;;;;;10.31;100.00;98104.59;5033114;28;20217;-82
2023/05/14 03:39:14;;;;;;;10.07;7.67;;;;;;;10.31;100.00;98109.03;5033330;28;20233;-83
2023/05/14 03:41:40;;;;;;;9.90;7.80;;;;;;;10.37;100.00;98106.81;5033722;28;20245;-82
2023/05/14 03:44:07;;;;;;;8.77;7.73;;;;;;;10.46;100.00;98103.53;5033845;28;20297;-82
2023/05/14 03:46:33;;;;;;;9.80;8.13;;;;;;;10.37;100.00;98108.59;5033876;28;20229;-82
2023/05/14 03:49:00;;;;;;;8.53;7.33;;;;;;;10.31;100.00;98109.03;5033523;28;20338;-82
2023/05/14 03:51:26;;;;;;;10.07;7.93;;;;;;;10.31;100.00;98109.03;5033670;28;20221;-82
2023/05/14 03:53:53;;;;;;;9.83;8.27;;;;;;;10.35;100.00;98098.13;5033383;28;20676;-82
2023/05/14 03:56:21;;;;;;;10.40;8.50;;;;;;;10.39;100.00;98104.91;5033633;28;20222;-82
2023/05/14 03:58:47;;;;;;;8.90;7.50;;;;;;;10.48;100.00;98100.78;5033441;28;20237;-82
2023/05/14 04:01:14;;;;;;;8.93;7.93;;;;;;;10.47;100.00;98105.22;5033200;28;20214;-82
2023/05/14 04:03:40;;;;;;;9.97;7.70;;;;;;;10.46;100.00;98097.44;5033159;28;20659;-82
2023/05/14 04:06:07;;;;;;;9.30;7.60;;;;;;;10.40;100.00;98100.50;5033766;28;20212;-82
2023/05/14 04:08:33;;;;;;;10.33;8.23;;;;;;;10.45;100.00;98096.56;5034002;28;20249;-82
2023/05/14 04:11:00;;;;;;;9.43;8.20;;;;;;;10.50;100.00;98099.75;5032779;28;20206;-82
2023/05/14 04:13:28;;;;;;;9.20;7.30;;;;;;;10.47;100.00;98099.09;5033040;28;20228;-82
2023/05/14 04:15:54;;;;;;;10.60;8.20;;;;;;;10.40;100.00;98100.50;5032926;28;20210;-83
2023/05/14 04:18:21;;;;;;;9.97;8.03;;;;;;;10.38;100.00;98102.38;5032858;28;20229;-83
2023/05/14 04:20:47;;;;;;;11.17;7.70;;;;;;;10.42;100.00;98106.50;5032705;28;20211;-83
2023/05/14 04:23:14;;;;;;;10.43;7.80;;;;;;;10.46;100.00;98097.44;5033109;28;20210;-83
2023/05/14 04:25:40;;;;;;;10.13;7.60;;;;;;;10.53;100.00;98103.97;5033266;28;20220;-82
2023/05/14 04:28:07;;;;;;;10.77;7.97;;;;;;;10.46;100.00;98105.34;5032980;28;20240;-83
2023/05/14 04:30:35;;;;;;;11.20;8.37;;;;;;;10.46;100.00;98103.53;5032977;28;20222;-82
2023/05/14 04:33:02;;;;;;;10.90;8.33;;;;;;;10.51;100.00;98093.50;5032988;28;20210;-83
2023/05/14 04:35:29;;;;;;;9.43;8.00;;;;;;;10.53;100.00;98098.69;5032967;28;20229;-83
2023/05/14 04:37:55;;;;;;;10.80;8.37;;;;;;;10.60;100.00;98105.22;5032763;28;20226;-83
2023/05/14 04:40:22;;;;;;;10.53;8.37;;;;;;;10.64;100.00;98104.06;5032607;28;20219;-83
2023/05/14 04:42:49;;;;;;;8.93;8.00;;;;;;;10.68;100.00;98092.31;5032793;28;20210;-83
2023/05/14 04:45:15;;;;;;;10.03;7.70;;;;;;;10.74;100.00;98092.75;5032836;28;20215;-82
2023/05/14 04:47:43;;;;;;;10.13;8.10;;;;;;;10.81;100.00;98095.78;5032949;28;20232;-83
2023/05/14 04:50:10;;;;;;;10.50;8.10;;;;;;;10.80;100.00;98091.44;5032280;28;20244;-82
2023/05/14 04:52:37;;;;;;;9.17;7.40;;;;;;;10.82;100.00;98089.56;5032891;28;20221;-83
2023/05/14 04:55:05;;;;;;;10.40;7.63;;;;;;;10.83;100.00;98091.25;5032826;28;20216;-83
2023/05/14 04:57:31;;;;;;;10.80;7.77;;;;;;;10.82;100.00;98092.22;5032461;28;20227;-83
2023/05/14 04:59:57;;;;;;;10.50;8.43;;;;;;;10.86;100.00;98099.81;5032674;28;20218;-82
2023/05/14 05:02:24;;;;;;;9.30;7.63;;;;;;;10.99;100.00;98102.41;5032384;28;20672;-82
2023/05/14 05:04:52;;;;;;;8.93;7.73;;;;;;;10.98;100.00;98106.00;5032583;28;20221;-83
2023/05/14 05:07:18;;;;;;;10.43;7.90;;;;;;;11.14;100.00;98091.56;5032275;28;20704;-83
2023/05/14 05:09:45;;;;;;;8.33;7.30;;;;;;;11.10;100.00;98095.41;5031965;28;20241;-82
2023/05/14 05:12:11;;;;;;;13.13;7.73;;;;;;;11.20;100.00;98091.13;5032440;28;20269;-83
2023/05/14 05:14:38;;;;;;;9.00;7.60;;;;;;;11.12;100.00;98095.31;5032081;28;20219;-83
2023/05/14 05:17:04;;;;;;;8.70;7.43;;;;;;;11.08;100.00;98094.66;5032327;28;20215;-83
2023/05/14 05:19:31;;;;;;;8.37;7.33;;;;;;;11.06;100.00;98096.59;5031723;28;20318;-83
2023/05/14 05:21:59;;;;;;;9.03;6.80;;;;;;;11.01;100.00;98101.34;5032233;28;20213;-83
2023/05/14 05:24:25;;;;;;;8.43;7.23;;;;;;;11.03;100.00;98106.53;5032248;28;20213;-83
2023/05/14 05:26:54;;;;;;;9.43;7.13;;;;;;;11.07;100.00;98103.56;5031739;28;20236;-83
2023/05/14 05:29:21;;;;;;;8.27;7.37;;;;;;;11.14;100.00;98096.03;5031905;28;20224;-83
2023/05/14 05:31:47;;;;;;;9.47;7.23;;;;;;;11.17;100.00;98085.22;5032269;28;20227;-83
2023/05/14 05:34:14;;;;;;;10.83;7.00;;;;;;;11.23;100.00;98095.38;5032042;28;20674;-83
2023/05/14 05:36:43;;;;;;;8.90;6.93;;;;;;;11.24;100.00;98097.03;5032271;28;20303;-83
2023/05/14 05:39:11;;;;;;;9.00;6.97;;;;;;;11.31;100.00;98090.38;5031700;28;20242;-83
2023/05/14 05:41:38;;;;;;;9.70;7.50;;;;;;;11.36;100.00;98086.44;5031890;28;20582;-83
2023/05/14 05:44:04;;;;;;;8.30;7.30;;;;;;;11.44;100.00;98088.53;5032264;28;20221;-83
2023/05/14 05:46:31;;;;;;;9.93;7.60;;;;;;;11.42;100.00;98090.41;5032122;28;20208;-82
2023/05/14 05:48:57;;;;;;;8.50;7.17;;;;;;;11.46;100.00;98083.97;5032966;28;20234;-83
2023/05/14 05:51:24;;;;;;;8.10;6.80;;;;;;;11.51;100.00;98089.75;5038695;28;20209;-85
2023/05/14 05:53:50;;;;;;;8.43;7.37;;;;;;;11.47;100.00;98088.28;5036009;28;20242;-83
2023/05/14 05:56:18;;;;;;;8.17;7.30;;;;;;;11.60;100.00;98091.75;5031020;28;20218;-83
2023/05/14 05:58:45;;;;;;;8.47;7.37;;;;;;;11.62;100.00;98088.03;5031285;28;20228;-83
2023/05/14 06:01:11;;;;;;;9.13;7.17;;;;;;;11.69;100.00;98086.63;5030510;28;20209;-83
2023/05/14 06:03:38;;;;;;;9.10;8.20;;;;;;;11.71;100.00;98094.44;5031054;28;20213;-83
2023/05/14 06:06:05;;;;;;;9.13;7.20;;;;;;;11.70;100.00;98100.72;5031151;28;20204;-83
2023/05/14 06:08:31;;;;;;;8.67;7.23;;;;;;;11.73;100.00;98096.03;5030658;28;20233;-83
2023/05/14 06:10:58;;;;;;;7.97;6.90;;;;;;;11.84;100.00;98097.88;5030827;28;20225;-83
2023/05/14 06:13:26;;;;;;;10.33;7.80;;;;;;;11.91;100.00;98096.44;5031063;28;20216;-83
2023/05/14 06:15:52;;;;;;;8.70;7.57;;;;;;;11.96;100.00;98099.59;5031258;28;20211;-83
2023/05/14 06:18:19;;;;;;;9.40;7.73;;;;;;;11.94;100.00;98097.09;5030800;28;20225;-83
2023/05/14 06:20:45;;;;;;;9.87;7.37;;;;;;;11.90;100.00;98092.13;5030634;28;20223;-82
2023/05/14 06:23:12;;;;;;;10.27;7.30;;;;;;;11.98;100.00;98095.06;5031050;28;20217;-83
2023/05/14 06:25:38;;;;;;;9.67;7.87;;;;;;;12.16;100.00;98094.50;5031213;28;20211;-83
2023/05/14 06:28:05;;;;;;;8.70;7.10;;;;;;;12.22;100.00;98094.03;5030905;28;20246;-83
2023/05/14 06:30:32;;;;;;;9.40;7.67;;;;;;;12.27;100.00;98091.88;5030781;28;20214;-83
2023/05/14 06:32:59;;;;;;;7.93;6.90;;;;;;;12.43;100.00;98094.19;5030925;28;20604;-83
2023/05/14 06:35:25;;;;;;;9.40;7.50;;;;;;;12.55;100.00;98101.19;5030756;28;20209;-83
2023/05/14 06:37:52;;;;;;;8.87;7.57;;;;;;;12.67;100.00;98097.59;5030675;28;20231;-83
2023/05/14 06:40:19;;;;;;;7.70;6.90;;;;;;;12.66;100.00;98093.25;5030475;28;20216;-83
2023/05/14 06:42:45;;;;;;;8.70;7.60;;;;;;;12.63;100.00;98093.47;5030731;28;20605;-83
2023/05/14 06:45:12;;;;;;;8.90;7.73;;;;;;;12.75;100.00;98097.81;5030764;28;20212;-83
2023/05/14 06:47:40;;;;;;;8.07;7.07;;;;;;;12.75;100.00;98082.78;5030451;28;20236;-83
2023/05/14 06:50:07;;;;;;;8.60;7.47;;;;;;;12.85;100.00;98093.50;5030540;28;20249;-83
2023/05/14 06:52:34;;;;;;;9.00;7.50;;;;;;;12.87;100.00;98086.25;5030623;28;20484;-83
2023/05/14 06:55:00;;;;;;;10.63;7.23;;;;;;;12.87;100.00;98086.25;5030652;28;20213;-83
2023/05/14 06:57:26;;;;;;;8.10;6.97;;;;;;;13.01;100.00;98089.53;5030601;28;20344;-76
2023/05/14 06:59:53;;;;;;;9.27;7.80;;;;;;;13.09;100.00;98081.81;5030147;28;20212;-76
2023/05/14 07:02:19;;;;;;;7.67;6.83;;;;;;;13.09;100.00;98080.97;5030681;28;20587;-76
2023/05/14 07:04:47;;;;;;;8.60;7.43;;;;;;;13.10;100.00;98078.22;5030407;28;20219;-77
2023/05/14 07:07:17;;;;;;;9.53;7.63;;;;;;;13.20;100.00;98083.63;5030629;28;20646;-76
2023/05/14 07:09:43;;;;;;;8.20;7.33;;;;;;;13.21;98.97;98082.66;5030035;28;20219;-76
2023/05/14 07:12:10;;;;;;;9.13;7.33;;;;;;;13.32;98.68;98082.63;5031202;28;20210;-75
2023/05/14 07:14:36;;;;;;;10.13;7.70;;;;;;;13.42;98.37;98088.88;5034332;28;20220;-76
2023/05/14 07:17:03;;;;;;;9.73;7.10;;;;;;;13.43;98.94;98090.53;5034142;28;20209;-76
2023/05/14 07:19:29;;;;;;;8.67;7.50;;;;;;;13.47;98.37;98087.53;5033670;28;20236;-76
2023/05/14 07:21:57;;;;;;;9.98;8.98;;;;;;;13.56;97.49;98085.94;5031593;28;20908;-76
2023/05/14 07:24:24;;;;;;;9.30;7.73;;;;;;;13.61;95.79;98075.78;5032478;28;20212;-76
2023/05/14 07:26:50;;;;;;;8.67;7.73;;;;;;;13.74;96.66;98073.81;5033042;28;20964;-77
2023/05/14 07:29:17;;;;;;;8.77;7.40;;;;;;;13.89;96.67;98076.03;5033213;28;20229;-76
2023/05/14 07:31:43;;;;;;;8.13;7.23;;;;;;;13.96;95.84;98076.34;5033565;28;20209;-76
2023/05/14 07:34:11;;;;;;;9.30;7.80;;;;;;;14.11;93.43;98065.28;5033604;28;20216;-76
2023/05/14 07:36:38;;;;;;;9.17;6.93;;;;;;;14.00;92.55;98053.88;5033618;28;20241;-76
2023/05/14 07:39:06;;;;;;;9.27;7.97;;;;;;;13.89;92.37;98059.25;5033344;28;20255;-75
2023/05/14 07:41:33;;;;;;;8.20;7.13;;;;;;;13.76;93.57;98063.91;5031297;28;20213;-76
2023/05/14 07:43:59;;;;;;;7.60;6.53;;;;;;;13.67;95.25;98061.97;5030753;28;20207;-76
2023/05/14 07:46:26;;;;;;;10.27;7.93;;;;;;;13.70;96.74;98061.75;5030632;28;20668;-76
2023/05/14 07:48:52;;;;;;;8.53;7.60;;;;;;;13.75;96.89;98063.03;5031840;28;20245;-76
2023/05/14 07:51:19;;;;;;;8.57;7.63;;;;;;;13.89;97.63;98067.22;5033314;28;20214;-76
2023/05/14 07:53:45;;;;;;;9.53;8.53;;;;;;;14.10;96.80;98071.56;5032057;28;20586;-76
2023/05/14 07:56:13;;;;;;;8.50;6.70;;;;;;;14.36;95.65;98064.91;5030672;28;20210;-77
2023/05/14 07:58:40;;;;;;;10.23;7.73;;;;;;;14.68;91.76;98048.84;5030116;28;20235;-76
2023/05/14 08:01:07;;;;;;;10.10;7.50;;;;;;;14.93;90.25;98051.06;5030148;28;20276;-76
2023/05/14 08:03:34;;;;;;;9.00;8.10;;;;;;;15.16;89.16;98047.22;5033146;28;20210;-76
2023/05/14 08:06:01;;;;;;;8.10;7.23;;;;;;;15.43;88.31;98044.75;5033122;28;20315;-75
2023/05/14 08:08:27;;;;;;;10.23;8.37;;;;;;;15.75;86.96;98034.69;5029829;28;20240;-76
2023/05/14 08:10:53;;;;;;;8.33;7.53;;;;;;;16.14;85.88;98038.03;5029782;28;20265;-75
2023/05/14 08:13:21;;;;;;;9.27;8.10;;;;;;;16.19;82.16;98030.47;5030161;28;20212;-77
2023/05/14 08:15:48;;;;;;;8.37;7.50;;;;;;;16.39;81.02;98026.78;5031525;28;20216;-80
2023/05/14 08:18:15;;;;;;;9.37;7.87;;;;;;;16.33;77.06;98010.50;5032661;28;20234;-80
2023/05/14 08:20:41;;;;;;;10.53;8.17;;;;;;;16.50;77.52;98009.75;5032431;28;20216;-75
2023/05/14 08:23:08;;;;;;;10.43;8.93;;;;;;;16.46;75.75;98006.53;5032480;28;20302;-81
2023/05/14 08:25:34;;;;;;;10.20;8.57;;;;;;;16.42;75.44;98005.16;5032780;28;20322;-81
2023/05/14 08:28:01;;;;;;;10.37;8.77;;;;;;;16.33;75.93;98005.16;5032507;28;20240;-85
2023/05/14 08:30:30;;;;;;;9.85;8.85;;;;;;;16.25;76.57;98005.88;5031409;28;20912;-81
2023/05/14 08:32:58;;;;;;;11.55;9.50;;;;;;;16.37;77.86;98011.88;5031947;28;20453;-81
2023/05/14 08:35:24;;;;;;;9.27;8.27;;;;;;;16.42;78.26;98007.84;5032641;28;20290;-81
2023/05/14 08:37:51;;;;;;;9.20;8.30;;;;;;;16.39;78.70;98002.78;5030084;28;20236;-81
2023/05/14 08:40:18;;;;;;;8.73;7.87;;;;;;;16.63;79.40;98011.13;5031211;28;20306;-81
2023/05/14 08:42:44;;;;;;;8.70;7.80;;;;;;;16.72;76.64;98006.75;5031320;28;20212;-82
2023/05/14 08:45:16;;;;;;;9.90;8.33;;;;;;;16.71;74.71;97984.53;5031577;28;20244;-81
2023/05/14 08:47:47;;;;;;;9.20;8.10;;;;;;;16.79;75.53;97994.47;5031499;28;20583;-82
2023/05/14 08:50:15;;;;;;;9.77;8.27;;;;;;;16.85;75.11;97997.41;5031428;28;20349;-82
2023/05/14 08:52:41;;;;;;;11.87;8.40;;;;;;;16.97;75.77;97998.91;5031412;28;20212;-82
2023/05/14 08:55:09;;;;;;;8.67;7.70;;;;;;;17.15;78.47;98007.78;5031500;28;20281;-82
2023/05/14 08:57:36;;;;;;;8.70;7.53;;;;;;;17.37;78.34;98004.72;5031018;28;20233;-82
2023/05/14 09:00:07;;;;;;;10.17;8.00;;;;;;;17.49;76.86;98000.81;5031352;28;20215;-81
2023/05/14 09:02:34;;;;;;;9.53;8.47;;;;;;;17.56;75.55;97998.41;5031107;28;20338;-81
2023/05/14 09:05:03;;;;;;;9.20;8.07;;;;;;;17.53;74.99;97994.19;5031538;28;20204;-81
2023/05/14 09:07:29;;;;;;;9.37;7.90;;;;;;;17.47;75.41;97988.59;5030739;28;20550;-80
2023/05/14 09:09:56;;;;;;;13.67;8.80;;;;;;;17.48;77.00;98006.31;5080540;22;20235;-79
2023/05/14 09:12:22;;;;;;;11.23;9.73;;;;;;;17.46;74.08;97986.94;5068254;28;20223;-79
2023/05/14 09:14:50;;;;;;;10.97;9.77;;;;;;;17.09;74.01;97989.69;5067885;28;20214;-80
2023/05/14 09:17:17;;;;;;;10.70;8.90;;;;;;;17.09;78.67;98005.72;5067816;28;20207;-80
2023/05/14 09:19:46;;;;;;;9.93;8.73;;;;;;;17.33;78.29;98008.66;5068142;28;20238;-79
2023/05/14 09:22:15;;;;;;;10.43;9.07;;;;;;;17.55;74.74;97989.53;5070548;28;20835;-80
2023/05/14 09:24:43;;;;;;;11.00;9.10;;;;;;;17.87;74.35;97987.13;5070737;28;20230;-79
2023/05/14 09:27:15;;;;;;;10.70;8.93;;;;;;;18.11;77.14;97995.34;5070603;28;20254;-79
2023/05/14 09:29:42;;;;;;;9.90;8.90;;;;;;;18.30;76.91;97995.16;5070226;28;20235;-79
2023/05/14 09:32:09;;;;;;;10.37;8.57;;;;;;;18.45;68.74;97940.09;5070525;28;20223;-79
2023/05/14 09:34:37;;;;;;;8.57;7.77;;;;;;;18.39;66.80;97943.41;5070173;28;20727;-79
2023/05/14 09:37:05;;;;;;;10.67;8.00;;;;;;;18.43;67.50;97944.78;5069928;28;20252;-79
2023/05/14 09:39:35;;;;;;;9.03;7.73;;;;;;;18.30;66.10;97938.97;5070154;28;20301;-79
2023/05/14 09:42:01;;;;;;;9.03;8.13;;;;;;;18.31;66.38;97943.38;5070420;28;20208;-79
2023/05/14 09:44:28;;;;;;;10.10;9.00;;;;;;;18.17;65.45;97938.56;5070607;28;20211;-79
2023/05/14 09:46:56;;;;;;;9.03;8.13;;;;;;;18.06;67.12;97938.84;5070240;28;20207;-79
2023/05/14 09:49:23;;;;;;;10.37;7.70;;;;;;;18.07;66.40;97937.00;5069887;28;20227;-79
2023/05/14 09:51:49;;;;;;;7.67;6.80;;;;;;;18.16;64.67;97928.84;5070121;28;20610;-79
2023/05/14 09:54:16;;;;;;;7.70;6.90;;;;;;;18.11;63.99;97925.81;5070596;28;20673;-79
2023/05/14 09:56:44;;;;;;;7.00;6.27;;;;;;;18.25;66.11;97933.28;5070075;28;20218;-79
2023/05/14 09:59:11;;;;;;;6.33;5.73;;;;;;;18.36;67.57;97954.41;5069759;28;20227;-79
2023/05/14 10:01:38;;;;;;;6.77;6.07;;;;;;;18.54;69.00;97955.19;5070270;28;20218;-79
2023/05/14 10:04:07;;;;;;;6.43;5.70;;;;;;;18.80;68.41;97945.28;5070659;28;20206;-79
2023/05/14 10:06:37;;;;;;;7.10;5.70;;;;;;;18.79;65.64;97932.91;5071148;28;20207;-79
2023/05/14 10:09:05;;;;;;;7.03;6.33;;;;;;;18.87;67.78;97946.31;5070644;28;20701;-79
2023/05/14 10:11:34;;;;;;;7.47;6.53;;;;;;;18.92;68.28;97944.00;5070774;28;20206;-77
2023/05/14 10:14:07;;;;;;;6.53;5.93;;;;;;;19.04;68.58;97949.88;5070893;28;20760;-79
2023/05/14 10:16:35;;;;;;;6.90;6.27;;;;;;;19.08;69.88;97953.94;5070817;28;20584;-79
2023/05/14 10:19:08;;;;;;;7.53;6.80;;;;;;;19.16;70.54;97960.16;5071018;28;20284;-80
2023/05/14 10:21:36;;;;;;;7.23;6.53;;;;;;;19.11;70.00;97949.06;5070691;28;20234;-80
2023/05/14 10:24:03;;;;;;;7.83;7.03;;;;;;;18.96;68.08;97945.34;5068034;28;20743;-80
2023/05/14 10:26:31;;;;;;;7.13;6.43;;;;;;;18.83;68.95;97955.66;5067851;28;20211;-80
2023/05/14 10:28:58;;;;;;;9.43;7.77;;;;;;;18.55;67.02;97939.97;5067770;28;20608;-80
2023/05/14 10:31:46;;;;;;;7.83;6.83;;;;;;;18.30;66.92;97936.28;5069642;28;20230;-80
2023/05/14 10:34:37;;;;;;;7.40;6.70;;;;;;;17.91;69.13;97943.06;5070791;28;20211;-80
2023/05/14 10:37:05;;;;;;;8.40;6.77;;;;;;;17.62;69.16;97945.16;5067798;28;20246;-80
2023/05/14 10:39:42;;;;;;;9.93;7.10;;;;;;;17.66;68.77;97943.00;5067189;28;20245;-80
2023/05/14 10:42:11;;;;;;;8.60;7.70;;;;;;;17.60;69.24;97938.28;5067924;28;20214;-80
2023/05/14 10:44:42;;;;;;;11.07;8.77;;;;;;;17.51;74.10;97968.63;5069437;28;20207;-80
2023/05/14 10:47:11;;;;;;;8.87;7.97;;;;;;;17.44;70.79;97947.00;5072791;28;20650;-79
2023/05/14 10:49:37;;;;;;;8.13;7.33;;;;;;;17.54;73.09;97950.44;5072810;28;20247;-79
2023/05/14 10:52:08;;;;;;;7.93;7.13;;;;;;;17.64;72.55;97945.00;5071667;28;20211;-80
2023/05/14 10:54:35;;;;;;;8.63;6.97;;;;;;;17.72;70.56;97929.88;5071473;28;20274;-80
2023/05/14 10:57:02;;;;;;;8.07;6.67;;;;;;;17.89;71.03;97926.34;5071994;28;20218;-80
2023/05/14 10:59:28;;;;;;;8.20;7.37;;;;;;;18.26;73.18;97940.31;5073911;28;20870;-80
2023/05/14 11:01:57;;;;;;;8.90;7.07;;;;;;;18.28;69.65;97927.59;5073735;28;20215;-79
2023/05/14 11:04:25;;;;;;;7.60;6.80;;;;;;;18.34;69.88;97915.47;5071207;28;20207;-80
2023/05/14 11:06:53;;;;;;;7.93;7.13;;;;;;;18.45;66.15;97894.59;5071160;28;20218;-79
2023/05/14 11:09:21;;;;;;;7.23;6.53;;;;;;;18.54;67.89;97907.00;5070795;28;20243;-80
2023/05/14 11:11:48;;;;;;;7.03;6.33;;;;;;;18.65;64.51;97882.63;5073081;28;20688;-79
2023/05/14 11:14:14;;;;;;;7.17;6.27;;;;;;;18.50;64.87;97886.94;5074380;28;20210;-79
2023/05/14 11:16:41;;;;;;;6.20;5.60;;;;;;;18.54;63.93;97879.44;5074008;28;20234;-79
2023/05/14 11:19:07;;;;;;;7.73;6.93;;;;;;;18.65;62.77;97874.59;5073499;28;20227;-79
2023/05/14 11:21:35;;;;;;;6.43;5.57;;;;;;;18.73;63.34;97869.28;5073772;28;20669;-78
2023/05/14 11:24:04;;;;;;;6.50;5.83;;;;;;;18.88;62.20;97858.75;5073631;28;20220;-79
2023/05/14 11:26:31;;;;;;;6.73;6.03;;;;;;;18.71;65.66;97892.69;5073706;28;20684;-79
2023/05/14 11:28:58;;;;;;;6.60;5.90;;;;;;;18.51;65.38;97875.22;5073907;28;20585;-79